Marla, Australia
Current Conditions -  °F | °C
As of 7:00 AM on Friday 24 Oct 2014 (Local Time) from YCBP Reporting Station
Clear Clear  
Wind Chill: 82°   Ceiling: Unl
Heat Index: 82°   Visibility: NA
Dew Point: 41°   Wind: 15mph
Humidity: 23%   Direction: 100°E
Pressure: 29.94"   Gusts: NA
Location:  27.31°S, 133.62°E
Report Text: YCBP 232100Z AUTO 10013KT //// // NCD 28/05 Q1014
Loading
Personal Weather Stations






























Interactive Weather Map
Tropical Storm Tracking
New forecast layout! Learn more

10-Day Weather Forecast

Advertisements
Track Severe Weather on mobile